Dunstable, MA (01827)

2:08 AM EST on November 23, 2014 (GMT -0500)
Jacques Ridge | Change Station
CLOSE
Current Station
Personal Weather Station
Location: Tyngsboro, MA
Elevation: 263 ft
Nearby Weather Stations

Elev 263 ft 42.64 °N, 71.47 °W | Updated 2 seconds ago

Partly Cloudy
Partly Cloudy
40.1 °F
Feels Like 40 °F
N
2.0
Wind Variable Wind from WSW
Gusts 4.0 mph

Today
High -- | Low -- °F
--% Chance of Precip.
Yesterday
High -- | Low -- °F
Precip. -- in
6:47 AM 4:17 PM
New Moon, 1% visible
Pressure 30.82 in
Visibility 10.0 miles
Clouds Clear
Windchill 40 °F
Dew Point 25 °F
Humidity 55%
Rainfall 0.00 in
Snow Depth Not available.
UV 0 out of 12
Pollen .10 out of 12
Air Quality Not available.
Flu Activity Not available.
METAR KASH 230651Z AUTO 00000KT 10SM CLR 03/M06 A3006 RMK AO2 T00271055 SLP434

More Conditions Fewer Conditions

Pressure 30.82 in
Visibility 10.0 miles
Clouds Clear
Windchill 40 °F
Dew Point 25 °F
Humidity 55%
Rainfall 0.00 in
Snow Depth Not available.
UV 0 out of 12
Pollen .10 out of 12
Air Quality Not available.
Flu Activity Not available.
METAR KASH 230651Z AUTO 00000KT 10SM CLR 03/M06 A3006 RMK AO2 T00271055 SLP434

More Conditions Fewer Conditions

10-Day Weather Forecast

Almanac

Astronomy

Nov. 23, 2014 Rise Set
Actual Time
Civil Twilight
Nautical Twilight
Astronomical Twilight
Moon
Length of Visible Light
Length of Day
Tomorrow will be .
, % of the Moon is Illuminated

Today's Extremes

State Highs State Lows

Community

WunderPhotos

Upload Photos

1,773,023 photos uploaded!

WunderBlogs® & News

Nearby

Air Quality

  Air Quality AQ Index Pollutant
Not available.

Snow Depth

Station Depth Elevation

Earthquake Activity

City Distance Mag. Time & Date
Minimum magnitude displayed is 2.5.

Coastal Water Temperatures

Place Temperature

Nearby Weather Stations